Time;durP1;ratioP1;P1;durP2;ratioP2;P2;SDS_P1;SDS_P2;PMS_P1;PMS_P2;Temp;Humidity;BMP_temperature;BMP_pressure;BME280_temperature;BME280_humidity;BME280_pressure;Samples;Min_cycle;Max_cycle;Signal;HPM_P1;HPM_P2
2023/05/11 00:00:06;;;;;;;;;;;21.20;51.80;;;;;;5121501;27;19919;-55
2023/05/11 00:02:31;;;;;;;;;;;21.20;51.80;;;;;;5120845;27;19998;-55
2023/05/11 00:04:57;;;;;;;;;;;21.20;51.70;;;;;;5127983;27;19998;-55
2023/05/11 00:07:22;;;;;;;;;;;21.20;51.80;;;;;;5124313;27;19988;-54
2023/05/11 00:09:48;;;;;;;;;;;21.20;51.80;;;;;;5121640;27;20418;-55
2023/05/11 00:12:13;;;;;;;;;;;21.20;51.70;;;;;;5121921;27;19980;-54
2023/05/11 00:14:39;;;;;;;;;;;21.20;51.80;;;;;;5124831;27;19911;-54
2023/05/11 00:17:04;;;;;;;;;;;21.20;51.80;;;;;;5110432;27;20284;-54
2023/05/11 00:19:30;;;;;;;;;;;21.20;51.70;;;;;;5119728;27;19911;-54
2023/05/11 00:21:56;;;;;;;;;;;21.20;51.70;;;;;;5119747;27;19920;-55
2023/05/11 00:24:21;;;;;;;;;;;21.20;51.70;;;;;;5114529;27;19912;-55
2023/05/11 00:26:47;;;;;;;;;;;21.20;51.70;;;;;;5120863;27;20367;-54
2023/05/11 00:29:12;;;;;;;;;;;21.10;51.60;;;;;;5128707;27;19958;-54
2023/05/11 00:31:38;;;;;;;;;;;21.10;51.60;;;;;;5113416;28;19919;-55
2023/05/11 00:34:03;;;;;;;;;;;21.10;51.60;;;;;;5132737;28;19908;-55
2023/05/11 00:36:29;;;;;;;;;;;21.10;51.50;;;;;;5101087;28;20326;-55
2023/05/11 00:38:55;;;;;;;;;;;21.10;51.50;;;;;;5116355;28;19920;-53
2023/05/11 00:41:20;;;;;;;;;;;21.10;51.60;;;;;;5131800;28;19934;-55
2023/05/11 00:43:46;;;;;;;;;;;21.10;51.60;;;;;;5131124;28;19911;-55
2023/05/11 00:46:11;;;;;;;;;;;21.10;51.60;;;;;;5132913;28;19919;-54
2023/05/11 00:48:37;;;;;;;;;;;21.10;51.60;;;;;;5126620;28;19961;-54
2023/05/11 00:51:03;;;;;;;;;;;21.10;51.60;;;;;;5130863;28;20007;-54
2023/05/11 00:53:28;;;;;;;;;;;21.10;51.60;;;;;;5131399;28;19912;-54
2023/05/11 00:55:54;;;;;;;;;;;21.10;51.60;;;;;;5131669;28;19911;-55
2023/05/11 00:58:19;;;;;;;;;;;21.10;51.50;;;;;;5130927;28;20331;-54
2023/05/11 01:00:46;;;;;;;;;;;21.10;51.60;;;;;;5123865;28;20283;-54
2023/05/11 01:03:13;;;;;;;;;;;21.10;51.60;;;;;;5131158;28;20290;-54
2023/05/11 01:05:51;;;;;;;;;;;21.10;51.70;;;;;;5101203;28;19912;-54
2023/05/11 01:08:17;;;;;;;;;;;21.10;51.60;;;;;;5120070;28;19920;-55
2023/05/11 01:11:02;;;;;;;;;;;21.10;51.50;;;;;;5086667;28;19911;-54
2023/05/11 01:13:32;;;;;;;;;;;21.10;51.60;;;;;;5116861;28;20408;-54
2023/05/11 01:15:57;;;;;;;;;;;21.10;51.60;;;;;;5101184;28;19930;-55
2023/05/11 01:18:30;;;;;;;;;;;21.10;51.50;;;;;;5121355;28;19911;-55
2023/05/11 01:21:01;;;;;;;;;;;21.10;51.50;;;;;;5101456;27;19911;-55
2023/05/11 01:23:43;;;;;;;;;;;21.10;51.50;;;;;;5103915;27;20476;-55
2023/05/11 01:26:27;;;;;;;;;;;21.10;51.50;;;;;;5122029;27;19927;-55
2023/05/11 01:29:02;;;;;;;;;;;21.10;51.40;;;;;;5123185;27;19916;-54
2023/05/11 01:31:29;;;;;;;;;;;21.10;51.50;;;;;;5103924;27;19959;-54
2023/05/11 01:33:56;;;;;;;;;;;21.10;51.40;;;;;;5120490;27;19911;-55
2023/05/11 01:36:24;;;;;;;;;;;21.10;51.50;;;;;;5104473;27;19916;-54
2023/05/11 01:38:49;;;;;;;;;;;21.10;51.50;;;;;;5103286;27;20385;-55
2023/05/11 01:41:16;;;;;;;;;;;21.00;51.30;;;;;;5106411;27;19919;-54
2023/05/11 01:43:41;;;;;;;;;;;21.10;51.50;;;;;;5104687;27;19949;-55
2023/05/11 01:46:07;;;;;;;;;;;21.10;51.40;;;;;;5122878;27;20356;-54
2023/05/11 01:48:34;;;;;;;;;;;21.00;51.40;;;;;;5105398;27;20324;-54
2023/05/11 01:51:00;;;;;;;;;;;21.00;51.40;;;;;;5104283;27;20284;-55
2023/05/11 01:53:26;;;;;;;;;;;21.00;51.50;;;;;;5106297;27;19912;-54
2023/05/11 01:55:52;;;;;;;;;;;21.00;51.30;;;;;;5121008;27;20415;-54
2023/05/11 01:58:17;;;;;;;;;;;21.00;51.30;;;;;;5104149;27;19921;-55
2023/05/11 02:00:43;;;;;;;;;;;21.00;51.30;;;;;;5123654;27;20360;-55
2023/05/11 02:03:08;;;;;;;;;;;21.00;51.30;;;;;;5103799;27;19955;-55
2023/05/11 02:05:34;;;;;;;;;;;21.00;51.30;;;;;;5105186;27;20010;-55
2023/05/11 02:08:00;;;;;;;;;;;21.10;51.40;;;;;;5122868;27;19986;-55
2023/05/11 02:10:25;;;;;;;;;;;21.00;51.30;;;;;;5119297;27;19930;-54
2023/05/11 02:12:51;;;;;;;;;;;21.00;51.40;;;;;;5101307;27;19911;-55
2023/05/11 02:15:17;;;;;;;;;;;21.00;51.50;;;;;;5123827;27;19915;-55
2023/05/11 02:17:42;;;;;;;;;;;21.00;51.50;;;;;;5123583;27;20006;-55
2023/05/11 02:20:08;;;;;;;;;;;21.00;51.40;;;;;;5122656;27;20317;-54
2023/05/11 02:22:34;;;;;;;;;;;21.00;51.50;;;;;;5122091;27;19978;-54
2023/05/11 02:24:59;;;;;;;;;;;21.00;51.50;;;;;;5123174;27;19922;-54
2023/05/11 02:27:25;;;;;;;;;;;21.00;51.50;;;;;;5122829;27;19946;-54
2023/05/11 02:29:50;;;;;;;;;;;20.90;51.40;;;;;;5128479;27;19918;-54
2023/05/11 02:32:16;;;;;;;;;;;21.00;51.50;;;;;;5119753;27;19912;-55
2023/05/11 02:34:42;;;;;;;;;;;20.90;51.40;;;;;;5119500;27;19912;-55
2023/05/11 02:37:14;;;;;;;;;;;20.90;51.40;;;;;;5096166;28;19912;-54
2023/05/11 02:39:40;;;;;;;;;;;20.90;51.40;;;;;;5122948;27;19918;-55
2023/05/11 02:42:16;;;;;;;;;;;20.90;52.20;;;;;;5131465;27;20367;-55
2023/05/11 02:45:01;;;;;;;;;;;20.90;51.60;;;;;;5113181;27;20000;-55
2023/05/11 02:47:27;;;;;;;;;;;20.90;51.60;;;;;;5133009;27;19912;-54
2023/05/11 02:49:53;;;;;;;;;;;20.90;51.50;;;;;;5132267;27;19915;-54
2023/05/11 02:52:20;;;;;;;;;;;20.90;51.50;;;;;;5110688;27;19916;-55
2023/05/11 02:54:46;;;;;;;;;;;20.90;51.50;;;;;;5115259;27;19918;-55
2023/05/11 02:57:11;;;;;;;;;;;20.90;51.50;;;;;;5125152;27;19912;-54
2023/05/11 02:59:37;;;;;;;;;;;20.90;51.60;;;;;;5127000;27;19928;-55
2023/05/11 03:02:02;;;;;;;;;;;20.90;51.60;;;;;;5121744;27;19961;-54
2023/05/11 03:04:28;;;;;;;;;;;20.80;51.60;;;;;;5121225;27;19919;-54
2023/05/11 03:06:53;;;;;;;;;;;20.80;51.60;;;;;;5105240;27;19922;-54
2023/05/11 03:09:19;;;;;;;;;;;20.90;51.70;;;;;;5126080;27;19998;-54
2023/05/11 03:11:44;;;;;;;;;;;20.80;51.60;;;;;;5130249;27;19911;-54
2023/05/11 03:14:10;;;;;;;;;;;20.80;51.60;;;;;;5123462;27;19953;-55
2023/05/11 03:16:36;;;;;;;;;;;20.80;51.60;;;;;;5122178;27;19911;-55
2023/05/11 03:19:01;;;;;;;;;;;20.80;51.70;;;;;;5102937;27;20286;-55
2023/05/11 03:21:27;;;;;;;;;;;20.80;51.70;;;;;;5120863;27;19915;-54
2023/05/11 03:23:52;;;;;;;;;;;20.80;51.70;;;;;;5104335;27;19916;-54
2023/05/11 03:26:18;;;;;;;;;;;20.70;51.60;;;;;;5120237;27;19924;-53
2023/05/11 03:28:43;;;;;;;;;;;20.80;51.70;;;;;;5104792;27;20436;-53
2023/05/11 03:31:09;;;;;;;;;;;20.80;51.60;;;;;;5120379;27;20386;-54
2023/05/11 03:33:35;;;;;;;;;;;20.80;51.60;;;;;;5118138;27;20367;-54
2023/05/11 03:36:00;;;;;;;;;;;20.80;51.60;;;;;;5120639;27;20333;-54
2023/05/11 03:38:26;;;;;;;;;;;20.80;51.70;;;;;;5098783;27;19919;-54
2023/05/11 03:40:51;;;;;;;;;;;20.80;51.70;;;;;;5118844;27;19923;-54
2023/05/11 03:43:17;;;;;;;;;;;20.80;51.60;;;;;;5101229;27;19916;-53
2023/05/11 03:45:42;;;;;;;;;;;20.70;51.70;;;;;;5102485;27;19919;-54
2023/05/11 03:48:07;;;;;;;;;;;20.70;51.60;;;;;;5122314;27;20230;-54
2023/05/11 03:50:33;;;;;;;;;;;20.80;51.70;;;;;;5120718;27;19960;-54
2023/05/11 03:52:58;;;;;;;;;;;20.80;51.70;;;;;;5119786;27;19920;-53
2023/05/11 03:55:25;;;;;;;;;;;20.70;51.60;;;;;;5120386;27;19911;-54
2023/05/11 03:57:51;;;;;;;;;;;20.70;51.60;;;;;;5120970;27;19915;-54
2023/05/11 04:00:16;;;;;;;;;;;20.70;51.50;;;;;;5123714;27;20450;-54
2023/05/11 04:02:42;;;;;;;;;;;20.70;51.70;;;;;;5124503;27;19919;-53
2023/05/11 04:05:08;;;;;;;;;;;20.70;51.70;;;;;;5121466;27;20009;-54
2023/05/11 04:07:34;;;;;;;;;;;20.70;51.80;;;;;;5120346;27;20390;-54
2023/05/11 04:10:00;;;;;;;;;;;20.70;51.70;;;;;;5120305;27;19919;-54
2023/05/11 04:12:25;;;;;;;;;;;20.70;51.70;;;;;;5107516;27;19916;-54
2023/05/11 04:14:51;;;;;;;;;;;20.70;51.70;;;;;;5120279;27;19920;-53
2023/05/11 04:17:16;;;;;;;;;;;20.70;51.90;;;;;;5118555;27;19911;-54
2023/05/11 04:19:41;;;;;;;;;;;20.70;51.90;;;;;;5121237;27;20006;-54
2023/05/11 04:22:07;;;;;;;;;;;20.70;51.90;;;;;;5099352;28;19915;-54
2023/05/11 04:24:32;;;;;;;;;;;20.70;51.90;;;;;;5125397;27;19915;-54
2023/05/11 04:26:58;;;;;;;;;;;20.70;51.90;;;;;;5114940;27;19923;-53
2023/05/11 04:29:24;;;;;;;;;;;20.70;51.90;;;;;;5125273;27;20363;-54
2023/05/11 04:31:49;;;;;;;;;;;20.70;51.80;;;;;;5129541;27;20329;-54
2023/05/11 04:34:15;;;;;;;;;;;20.70;51.80;;;;;;5133255;27;19908;-54
2023/05/11 04:36:40;;;;;;;;;;;20.70;51.80;;;;;;5121954;28;19908;-54
2023/05/11 04:39:06;;;;;;;;;;;20.70;51.80;;;;;;5117232;28;19912;-54
2023/05/11 04:41:31;;;;;;;;;;;20.70;51.90;;;;;;5130681;28;19962;-54
2023/05/11 04:43:58;;;;;;;;;;;20.60;51.80;;;;;;5129987;28;19942;-54
2023/05/11 04:46:23;;;;;;;;;;;20.60;51.80;;;;;;5104207;28;19912;-54
2023/05/11 04:48:48;;;;;;;;;;;20.70;51.90;;;;;;5131308;28;20313;-53
2023/05/11 04:51:14;;;;;;;;;;;20.60;51.80;;;;;;5131483;28;19912;-54
2023/05/11 04:53:39;;;;;;;;;;;20.70;51.80;;;;;;5132595;28;19907;-53
2023/05/11 04:56:05;;;;;;;;;;;20.60;51.80;;;;;;5129934;27;19980;-54
2023/05/11 04:58:30;;;;;;;;;;;20.70;51.90;;;;;;5133252;27;19911;-54
2023/05/11 05:00:56;;;;;;;;;;;20.70;52.50;;;;;;5136040;27;20320;-54
2023/05/11 05:03:21;;;;;;;;;;;20.60;51.80;;;;;;5134545;27;19915;-54
2023/05/11 05:05:47;;;;;;;;;;;20.60;51.70;;;;;;5128326;27;20383;-53
2023/05/11 05:08:13;;;;;;;;;;;20.60;51.70;;;;;;5129573;27;19916;-54
2023/05/11 05:10:38;;;;;;;;;;;20.60;51.80;;;;;;5120755;27;19919;-54
2023/05/11 05:13:03;;;;;;;;;;;20.70;51.80;;;;;;5105519;27;19918;-53
2023/05/11 05:15:29;;;;;;;;;;;20.70;51.90;;;;;;5124200;27;19930;-54
2023/05/11 05:17:54;;;;;;;;;;;20.60;52.40;;;;;;5106202;27;19918;-54
2023/05/11 05:20:20;;;;;;;;;;;20.60;51.80;;;;;;5088532;27;19916;-54
2023/05/11 05:22:45;;;;;;;;;;;20.60;51.70;;;;;;5127634;27;19954;-54
2023/05/11 05:25:11;;;;;;;;;;;20.60;51.70;;;;;;5131137;27;19915;-54
2023/05/11 05:27:36;;;;;;;;;;;20.60;51.80;;;;;;5123602;27;20567;-53
2023/05/11 05:30:02;;;;;;;;;;;20.60;51.70;;;;;;5129124;27;20002;-54
2023/05/11 05:32:27;;;;;;;;;;;20.70;51.80;;;;;;5124735;27;19915;-54
2023/05/11 05:34:53;;;;;;;;;;;20.60;51.80;;;;;;5132792;27;19919;-54
2023/05/11 05:37:18;;;;;;;;;;;20.60;51.80;;;;;;5103193;28;20002;-54
2023/05/11 05:39:44;;;;;;;;;;;20.60;51.80;;;;;;5131673;27;19911;-54
2023/05/11 05:42:09;;;;;;;;;;;20.60;51.80;;;;;;5132374;27;19958;-56
2023/05/11 05:44:35;;;;;;;;;;;20.60;51.80;;;;;;5130117;27;19912;-54
2023/05/11 05:47:00;;;;;;;;;;;20.60;51.80;;;;;;5124065;27;20049;-54
2023/05/11 05:49:25;;;;;;;;;;;20.60;51.90;;;;;;5123178;27;19919;-54
2023/05/11 05:51:51;;;;;;;;;;;20.60;51.80;;;;;;5121880;27;19918;-54
2023/05/11 05:54:16;;;;;;;;;;;20.60;51.80;;;;;;5106200;27;19922;-54
2023/05/11 05:56:43;;;;;;;;;;;20.60;51.80;;;;;;5123055;27;19947;-54
2023/05/11 05:59:09;;;;;;;;;;;20.60;51.80;;;;;;5102850;27;19916;-54
2023/05/11 06:01:35;;;;;;;;;;;20.60;51.90;;;;;;5086935;27;19912;-53
2023/05/11 06:04:00;;;;;;;;;;;20.50;51.90;;;;;;5123061;27;20256;-54
2023/05/11 06:06:26;;;;;;;;;;;20.50;51.90;;;;;;5081032;27;20299;-55
2023/05/11 06:08:52;;;;;;;;;;;20.60;52.60;;;;;;5122969;27;19967;-54
2023/05/11 06:11:17;;;;;;;;;;;20.60;51.90;;;;;;5103904;27;19990;-55
2023/05/11 06:13:42;;;;;;;;;;;20.60;51.90;;;;;;5122993;27;19930;-54
2023/05/11 06:16:08;;;;;;;;;;;20.60;52.00;;;;;;5122604;27;19922;-54
2023/05/11 06:18:33;;;;;;;;;;;20.50;52.00;;;;;;5126838;27;19911;-54
2023/05/11 06:20:59;;;;;;;;;;;20.50;52.00;;;;;;5123156;27;19915;-54
2023/05/11 06:23:24;;;;;;;;;;;20.60;52.00;;;;;;5111761;27;19912;-54
2023/05/11 06:25:50;;;;;;;;;;;20.60;51.90;;;;;;5131751;27;19943;-55
2023/05/11 06:28:15;;;;;;;;;;;20.50;52.00;;;;;;5117095;27;19919;-55
2023/05/11 06:30:40;;;;;;;;;;;20.60;52.60;;;;;;5115636;27;19915;-54
2023/05/11 06:33:06;;;;;;;;;;;20.60;51.90;;;;;;5133409;27;19912;-55
2023/05/11 06:35:31;;;;;;;;;;;20.50;52.00;;;;;;5129067;27;19969;-54
2023/05/11 06:37:57;;;;;;;;;;;20.50;52.00;;;;;;5114046;27;19961;-55
2023/05/11 06:40:22;;;;;;;;;;;20.50;52.10;;;;;;5132694;27;19920;-55
2023/05/11 06:42:48;;;;;;;;;;;20.50;52.10;;;;;;5124260;27;20846;-55
2023/05/11 06:45:13;;;;;;;;;;;20.50;52.00;;;;;;5127762;27;19922;-55
2023/05/11 06:47:39;;;;;;;;;;;20.50;52.00;;;;;;5123870;27;20369;-54
2023/05/11 06:50:04;;;;;;;;;;;20.50;52.00;;;;;;5128742;27;20284;-55
2023/05/11 06:52:30;;;;;;;;;;;20.50;52.60;;;;;;5131554;27;19911;-54
2023/05/11 06:54:56;;;;;;;;;;;20.50;52.00;;;;;;5128036;27;19991;-54
2023/05/11 06:57:21;;;;;;;;;;;20.50;51.90;;;;;;5108484;27;20014;-55
2023/05/11 06:59:47;;;;;;;;;;;20.50;52.00;;;;;;5127702;27;20006;-54
2023/05/11 07:02:12;;;;;;;;;;;20.50;52.10;;;;;;5126563;27;19916;-54
2023/05/11 07:04:37;;;;;;;;;;;20.50;52.00;;;;;;5133988;27;20371;-54
2023/05/11 07:07:03;;;;;;;;;;;20.50;52.10;;;;;;5134150;27;19907;-55
2023/05/11 07:09:28;;;;;;;;;;;20.50;52.10;;;;;;5111020;27;19916;-55
2023/05/11 07:11:54;;;;;;;;;;;20.50;52.10;;;;;;5131889;27;20374;-55
2023/05/11 07:14:20;;;;;;;;;;;20.60;52.10;;;;;;5133457;27;20407;-55
2023/05/11 07:16:45;;;;;;;;;;;20.60;52.10;;;;;;5126847;27;20428;-55
2023/05/11 07:19:11;;;;;;;;;;;20.50;52.00;;;;;;5114593;28;19922;-54
2023/05/11 07:21:36;;;;;;;;;;;20.60;52.10;;;;;;5133829;27;19914;-55
2023/05/11 07:24:02;;;;;;;;;;;20.50;52.10;;;;;;5131719;27;19919;-55
2023/05/11 07:26:28;;;;;;;;;;;20.60;52.20;;;;;;5123904;27;19927;-54
2023/05/11 07:28:53;;;;;;;;;;;20.50;52.20;;;;;;5115002;27;19912;-54
2023/05/11 07:31:19;;;;;;;;;;;20.50;52.10;;;;;;5132276;27;19915;-54
2023/05/11 07:33:44;;;;;;;;;;;20.60;52.30;;;;;;5090390;28;19919;-54
2023/05/11 07:36:10;;;;;;;;;;;20.60;52.90;;;;;;5121404;27;20418;-54
2023/05/11 07:38:35;;;;;;;;;;;20.60;52.20;;;;;;5130378;27;19918;-54
2023/05/11 07:41:01;;;;;;;;;;;20.60;52.20;;;;;;5128234;27;19919;-54
2023/05/11 07:43:26;;;;;;;;;;;20.60;52.20;;;;;;5112774;27;19912;-54
2023/05/11 07:45:52;;;;;;;;;;;20.60;52.20;;;;;;5107686;27;19946;-54
2023/05/11 07:48:17;;;;;;;;;;;20.60;52.10;;;;;;5122170;27;20261;-55
2023/05/11 07:50:43;;;;;;;;;;;20.60;52.30;;;;;;5125150;27;20359;-55
2023/05/11 07:53:08;;;;;;;;;;;20.60;52.30;;;;;;5127356;27;19938;-55
2023/05/11 07:55:34;;;;;;;;;;;20.70;52.50;;;;;;5127776;27;19934;-56
2023/05/11 07:57:59;;;;;;;;;;;20.70;52.40;;;;;;5110428;27;20049;-56
2023/05/11 08:00:25;;;;;;;;;;;20.60;52.40;;;;;;5128994;27;19920;-55
2023/05/11 08:02:51;;;;;;;;;;;20.70;52.50;;;;;;5129769;27;19983;-55
2023/05/11 08:05:18;;;;;;;;;;;20.60;52.40;;;;;;5129532;27;20367;-55
2023/05/11 08:07:43;;;;;;;;;;;20.60;52.30;;;;;;5132356;27;20333;-55
2023/05/11 08:10:09;;;;;;;;;;;20.60;52.50;;;;;;5132116;27;19919;-55
2023/05/11 08:12:35;;;;;;;;;;;20.60;52.50;;;;;;5127286;27;19927;-55
2023/05/11 08:15:02;;;;;;;;;;;20.60;52.60;;;;;;5124836;27;19915;-54
2023/05/11 08:17:28;;;;;;;;;;;20.60;52.50;;;;;;5107502;28;20352;-55
2023/05/11 08:19:54;;;;;;;;;;;20.70;52.50;;;;;;5128780;27;19911;-55
2023/05/11 08:22:20;;;;;;;;;;;20.60;52.50;;;;;;5126522;27;19918;-56
2023/05/11 08:24:45;;;;;;;;;;;20.70;52.70;;;;;;5127891;27;19954;-54
2023/05/11 08:27:11;;;;;;;;;;;20.70;52.70;;;;;;5127238;27;19972;-55
2023/05/11 08:29:36;;;;;;;;;;;20.60;52.70;;;;;;5122050;27;19982;-54
2023/05/11 08:32:02;;;;;;;;;;;20.60;52.70;;;;;;5117416;28;20333;-55
2023/05/11 08:34:27;;;;;;;;;;;20.70;52.80;;;;;;5131213;27;20283;-55
2023/05/11 08:36:54;;;;;;;;;;;20.70;52.80;;;;;;5130057;28;19973;-54
2023/05/11 08:39:20;;;;;;;;;;;20.70;52.80;;;;;;5119791;28;20014;-55
2023/05/11 08:41:45;;;;;;;;;;;20.70;52.80;;;;;;5128266;28;20378;-55
2023/05/11 08:44:11;;;;;;;;;;;20.70;52.90;;;;;;5127806;28;19911;-55
2023/05/11 08:46:37;;;;;;;;;;;20.70;52.80;;;;;;5104549;28;19923;-56
2023/05/11 08:49:03;;;;;;;;;;;20.70;52.90;;;;;;5117528;28;20298;-55
2023/05/11 08:51:28;;;;;;;;;;;20.60;52.90;;;;;;5102100;28;19915;-55
2023/05/11 08:53:56;;;;;;;;;;;20.70;52.90;;;;;;5111998;28;19917;-55
2023/05/11 08:56:22;;;;;;;;;;;20.70;53.00;;;;;;5127451;28;19911;-55
2023/05/11 08:58:48;;;;;;;;;;;20.70;52.90;;;;;;5100987;28;19926;-54
2023/05/11 09:01:14;;;;;;;;;;;20.70;53.00;;;;;;5122529;28;19915;-55
2023/05/11 09:03:40;;;;;;;;;;;20.70;53.10;;;;;;5124470;28;19912;-54
2023/05/11 09:06:06;;;;;;;;;;;20.70;53.00;;;;;;5125276;28;19949;-54
2023/05/11 09:08:33;;;;;;;;;;;20.70;53.10;;;;;;5095479;28;19933;-54
2023/05/11 09:10:58;;;;;;;;;;;20.70;53.10;;;;;;5117539;28;19947;-54
2023/05/11 09:13:24;;;;;;;;;;;20.70;53.10;;;;;;5111099;28;19987;-54
2023/05/11 09:15:50;;;;;;;;;;;20.70;53.20;;;;;;5113179;28;20371;-55
2023/05/11 09:18:16;;;;;;;;;;;20.70;53.10;;;;;;5126605;28;19912;-54
2023/05/11 09:20:42;;;;;;;;;;;20.70;53.20;;;;;;5129592;28;20288;-53
2023/05/11 09:23:07;;;;;;;;;;;20.70;53.10;;;;;;5131241;28;19916;-54
2023/05/11 09:25:33;;;;;;;;;;;20.60;53.20;;;;;;5130624;28;20703;-54
2023/05/11 09:27:59;;;;;;;;;;;20.70;53.30;;;;;;5120419;28;19912;-54
2023/05/11 09:30:24;;;;;;;;;;;20.70;53.30;;;;;;5104878;28;20291;-54
2023/05/11 09:32:57;;;;;;;;;;;20.60;53.20;;;;;;5125355;28;20349;-54
2023/05/11 09:35:25;;;;;;;;;;;20.70;53.40;;;;;;5104241;28;19919;-54
2023/05/11 09:37:57;;;;;;;;;;;20.60;53.30;;;;;;5124588;28;19911;-54
2023/05/11 09:40:23;;;;;;;;;;;20.60;53.40;;;;;;5109926;28;19923;-54
2023/05/11 09:42:49;;;;;;;;;;;20.60;53.50;;;;;;5128659;27;20380;-55
2023/05/11 09:45:32;;;;;;;;;;;20.70;53.50;;;;;;5125211;27;19922;-54
2023/05/11 09:47:58;;;;;;;;;;;20.60;53.50;;;;;;5131540;27;19955;-55
2023/05/11 09:50:23;;;;;;;;;;;20.60;53.30;;;;;;5133360;27;19958;-55
2023/05/11 09:52:50;;;;;;;;;;;20.60;53.40;;;;;;5132046;27;19926;-55
2023/05/11 09:55:16;;;;;;;;;;;20.60;53.20;;;;;;5114568;27;19922;-54
2023/05/11 09:57:41;;;;;;;;;;;20.60;53.60;;;;;;5103930;27;19919;-54
2023/05/11 10:00:07;;;;;;;;;;;20.60;53.60;;;;;;5119838;27;19919;-55
2023/05/11 10:02:33;;;;;;;;;;;20.60;53.70;;;;;;5098034;28;20364;-54
2023/05/11 10:04:59;;;;;;;;;;;20.60;53.70;;;;;;5122339;27;19919;-55
2023/05/11 10:07:28;;;;;;;;;;;20.60;53.70;;;;;;5104403;27;20777;-55
2023/05/11 10:09:55;;;;;;;;;;;20.60;53.70;;;;;;5126324;27;20002;-54
2023/05/11 10:12:21;;;;;;;;;;;20.60;53.70;;;;;;5099585;28;19962;-54
2023/05/11 10:14:46;;;;;;;;;;;20.60;53.70;;;;;;5119561;27;20344;-55
2023/05/11 10:17:12;;;;;;;;;;;20.60;53.80;;;;;;5108667;28;20287;-55
2023/05/11 10:19:37;;;;;;;;;;;20.60;53.90;;;;;;5126686;27;19919;-55
2023/05/11 10:22:04;;;;;;;;;;;20.70;54.00;;;;;;5112192;27;19960;-54
2023/05/11 10:24:30;;;;;;;;;;;20.60;53.80;;;;;;5110803;27;19951;-55
2023/05/11 10:26:56;;;;;;;;;;;20.60;53.80;;;;;;5130359;27;19955;-55
2023/05/11 10:29:21;;;;;;;;;;;20.60;53.80;;;;;;5105071;27;19915;-54
2023/05/11 10:31:47;;;;;;;;;;;20.60;53.80;;;;;;5106002;27;19926;-54
2023/05/11 10:34:12;;;;;;;;;;;20.70;53.80;;;;;;5106950;27;19998;-54
2023/05/11 10:36:38;;;;;;;;;;;20.60;53.90;;;;;;5086949;27;19942;-54
2023/05/11 10:39:03;;;;;;;;;;;20.60;53.90;;;;;;5125491;27;19911;-54
2023/05/11 10:41:32;;;;;;;;;;;20.60;53.80;;;;;;5131097;27;19933;-54
2023/05/11 10:44:04;;;;;;;;;;;20.60;54.10;;;;;;5129765;27;19915;-54
2023/05/11 10:46:38;;;;;;;;;;;20.60;54.00;;;;;;5109865;27;20462;-54
2023/05/11 10:49:26;;;;;;;;;;;20.60;54.10;;;;;;5111350;27;20395;-54
2023/05/11 10:51:59;;;;;;;;;;;20.60;54.00;;;;;;5108192;27;20299;-54
2023/05/11 10:54:43;;;;;;;;;;;20.60;54.00;;;;;;5133269;27;19911;-54
2023/05/11 10:57:32;;;;;;;;;;;20.60;54.10;;;;;;5130167;27;19947;-55
2023/05/11 11:00:09;;;;;;;;;;;20.60;54.10;;;;;;5096826;27;19911;-55
2023/05/11 11:02:35;;;;;;;;;;;20.60;54.10;;;;;;5133857;27;19918;-54
2023/05/11 11:05:06;;;;;;;;;;;20.60;54.10;;;;;;5097354;28;20407;-54
2023/05/11 11:07:52;;;;;;;;;;;20.60;54.30;;;;;;5136191;27;20383;-55
2023/05/11 11:10:28;;;;;;;;;;;20.60;54.30;;;;;;5113746;28;19920;-54
2023/05/11 11:13:00;;;;;;;;;;;20.60;54.20;;;;;;5122157;27;19912;-54
2023/05/11 11:15:25;;;;;;;;;;;20.60;54.50;;;;;;5112812;27;20295;-55
2023/05/11 11:17:52;;;;;;;;;;;20.60;54.80;;;;;;5114717;27;19953;-54
2023/05/11 11:20:37;;;;;;;;;;;20.60;54.60;;;;;;5125644;27;19915;-55
2023/05/11 11:23:03;;;;;;;;;;;20.60;54.40;;;;;;5130508;27;20383;-54
2023/05/11 11:25:54;;;;;;;;;;;20.60;54.50;;;;;;5133236;27;19919;-54
2023/05/11 11:28:20;;;;;;;;;;;20.50;54.40;;;;;;5127265;27;20053;-54
2023/05/11 11:30:45;;;;;;;;;;;20.50;54.50;;;;;;5128929;27;19990;-55
2023/05/11 11:33:11;;;;;;;;;;;20.60;54.70;;;;;;5130548;27;19915;-54
2023/05/11 11:35:43;;;;;;;;;;;20.60;54.70;;;;;;5109254;27;20312;-54
2023/05/11 11:38:13;;;;;;;;;;;20.60;55.30;;;;;;5117275;27;19953;-55
2023/05/11 11:40:39;;;;;;;;;;;20.60;54.60;;;;;;5128417;27;19952;-54
2023/05/11 11:43:18;;;;;;;;;;;20.60;54.50;;;;;;5113022;27;19918;-55
2023/05/11 11:45:56;;;;;;;;;;;20.60;54.80;;;;;;5124935;27;19922;-55
2023/05/11 11:48:27;;;;;;;;;;;20.60;54.70;;;;;;5132410;27;19960;-54
2023/05/11 11:51:02;;;;;;;;;;;20.60;54.70;;;;;;5131512;27;19915;-54
2023/05/11 11:53:39;;;;;;;;;;;20.60;54.70;;;;;;5131895;27;19915;-54
2023/05/11 11:56:25;;;;;;;;;;;20.60;54.80;;;;;;5125800;27;19949;-55
2023/05/11 11:58:50;;;;;;;;;;;20.60;54.70;;;;;;5110293;27;19995;-54
2023/05/11 12:01:19;;;;;;;;;;;20.60;54.80;;;;;;5124298;27;20009;-54
2023/05/11 12:03:45;;;;;;;;;;;20.60;54.80;;;;;;5113606;27;19916;-56
2023/05/11 12:06:11;;;;;;;;;;;20.70;54.90;;;;;;5103960;28;20435;-54
2023/05/11 12:08:37;;;;;;;;;;;20.70;54.90;;;;;;5112846;28;19947;-54
2023/05/11 12:11:02;;;;;;;;;;;20.70;55.10;;;;;;5107319;27;20537;-55
2023/05/11 12:13:28;;;;;;;;;;;20.60;55.00;;;;;;5118236;27;19919;-55
2023/05/11 12:16:06;;;;;;;;;;;20.70;55.10;;;;;;5111116;27;19961;-55
2023/05/11 12:18:32;;;;;;;;;;;20.70;55.20;;;;;;5130113;27;19920;-54
2023/05/11 12:20:57;;;;;;;;;;;20.70;55.10;;;;;;5132362;27;20332;-54
2023/05/11 12:23:22;;;;;;;;;;;20.70;55.40;;;;;;5093729;27;20282;-54
2023/05/11 12:26:04;;;;;;;;;;;20.70;55.40;;;;;;5131142;27;19949;-54
2023/05/11 12:28:29;;;;;;;;;;;20.70;55.40;;;;;;5130987;27;19980;-55
2023/05/11 12:30:54;;;;;;;;;;;20.70;55.40;;;;;;5122448;27;19920;-55
2023/05/11 12:33:20;;;;;;;;;;;20.70;55.40;;;;;;5129915;27;20391;-54
2023/05/11 12:35:50;;;;;;;;;;;20.70;55.40;;;;;;5130910;27;19975;-55
2023/05/11 12:38:15;;;;;;;;;;;20.70;55.40;;;;;;5086812;28;19911;-54
2023/05/11 12:43:44;;;;;;;;;;;20.80;55.40;;;;;;5118483;28;19968;-54
2023/05/11 12:46:10;;;;;;;;;;;20.70;55.50;;;;;;5133294;28;19920;-55
2023/05/11 12:48:35;;;;;;;;;;;20.70;55.50;;;;;;5133035;28;19908;-55
2023/05/11 12:51:00;;;;;;;;;;;20.70;55.50;;;;;;5102868;28;19911;-55
2023/05/11 12:53:26;;;;;;;;;;;20.80;55.60;;;;;;5128161;28;19919;-55
2023/05/11 12:55:58;;;;;;;;;;;20.70;55.50;;;;;;5113252;28;19911;-55
2023/05/11 12:58:23;;;;;;;;;;;20.70;55.50;;;;;;5095830;28;19915;-55
2023/05/11 13:00:49;;;;;;;;;;;20.70;55.60;;;;;;5131268;28;19911;-54
2023/05/11 13:03:19;;;;;;;;;;;20.70;55.60;;;;;;5132796;28;19915;-56
2023/05/11 13:05:44;;;;;;;;;;;20.70;55.60;;;;;;5133083;28;20045;-55
2023/05/11 13:08:13;;;;;;;;;;;20.70;55.60;;;;;;5129756;28;20020;-55
2023/05/11 13:10:38;;;;;;;;;;;20.70;55.60;;;;;;5087427;28;20412;-55
2023/05/11 13:13:03;;;;;;;;;;;20.70;55.60;;;;;;5128527;27;19915;-55
2023/05/11 13:15:29;;;;;;;;;;;20.80;55.60;;;;;;5094995;28;20450;-55
2023/05/11 13:18:01;;;;;;;;;;;20.80;55.70;;;;;;5115191;27;19930;-55
2023/05/11 13:20:27;;;;;;;;;;;20.80;55.70;;;;;;5133481;27;19947;-55
2023/05/11 13:23:03;;;;;;;;;;;20.80;55.70;;;;;;5133446;27;19960;-56
2023/05/11 13:25:28;;;;;;;;;;;20.80;55.70;;;;;;5128447;27;20272;-55
2023/05/11 13:27:54;;;;;;;;;;;20.90;55.70;;;;;;5131286;27;19907;-55
2023/05/11 13:30:20;;;;;;;;;;;20.90;55.70;;;;;;5115363;27;20407;-55
2023/05/11 13:32:45;;;;;;;;;;;20.90;55.70;;;;;;5133035;27;20014;-55
2023/05/11 13:35:11;;;;;;;;;;;20.90;55.70;;;;;;5129996;27;19912;-55
2023/05/11 13:37:36;;;;;;;;;;;21.00;55.70;;;;;;5134260;27;19911;-55
2023/05/11 13:40:02;;;;;;;;;;;21.00;55.70;;;;;;5135744;27;19907;-55
2023/05/11 13:42:28;;;;;;;;;;;21.00;55.80;;;;;;5116278;27;20494;-56
2023/05/11 13:44:53;;;;;;;;;;;21.00;55.60;;;;;;5133502;27;20019;-55
2023/05/11 13:47:19;;;;;;;;;;;21.10;55.80;;;;;;5115659;27;20361;-56
2023/05/11 13:49:44;;;;;;;;;;;21.10;55.80;;;;;;5115374;27;19955;-55
2023/05/11 13:52:10;;;;;;;;;;;21.10;55.80;;;;;;5129719;27;19919;-55
2023/05/11 13:54:35;;;;;;;;;;;21.10;55.80;;;;;;5132683;27;19911;-55
2023/05/11 13:57:01;;;;;;;;;;;21.10;55.90;;;;;;5115398;27;19919;-55
2023/05/11 13:59:27;;;;;;;;;;;21.10;55.90;;;;;;5134648;27;19914;-55
2023/05/11 14:01:52;;;;;;;;;;;21.10;55.90;;;;;;5135383;27;19914;-55
2023/05/11 14:04:18;;;;;;;;;;;21.10;55.90;;;;;;5135284;27;20356;-55
2023/05/11 14:06:44;;;;;;;;;;;21.10;55.90;;;;;;5133355;27;19919;-55
2023/05/11 14:09:10;;;;;;;;;;;21.10;55.90;;;;;;5113029;27;19941;-55
2023/05/11 14:11:36;;;;;;;;;;;21.00;55.90;;;;;;5135206;27;19912;-56
2023/05/11 14:14:01;;;;;;;;;;;21.00;56.00;;;;;;5134657;27;19976;-56
2023/05/11 14:16:27;;;;;;;;;;;21.00;56.10;;;;;;5128296;27;20348;-55